sensor_id;sensor_type;location;lat;lon;timestamp;P1;durP1;ratioP1;P2;durP2;ratioP2
14849;SDS011;7517;48.400;11.770;2022-07-10T00:01:37;1.33;;;1.23;;
14849;SDS011;7517;48.400;11.770;2022-07-10T00:04:04;2.30;;;1.27;;
14849;SDS011;7517;48.400;11.770;2022-07-10T00:06:34;1.70;;;1.60;;
14849;SDS011;7517;48.400;11.770;2022-07-10T00:09:01;1.73;;;1.60;;
14849;SDS011;7517;48.400;11.770;2022-07-10T00:11:28;1.70;;;1.60;;
14849;SDS011;7517;48.400;11.770;2022-07-10T00:13:55;1.70;;;1.60;;
14849;SDS011;7517;48.400;11.770;2022-07-10T00:16:25;1.67;;;1.57;;
14849;SDS011;7517;48.400;11.770;2022-07-10T00:18:53;1.77;;;1.67;;
14849;SDS011;7517;48.400;11.770;2022-07-10T00:21:20;2.13;;;1.73;;
14849;SDS011;7517;48.400;11.770;2022-07-10T00:23:48;2.10;;;1.67;;
14849;SDS011;7517;48.400;11.770;2022-07-10T00:26:15;1.80;;;1.70;;
14849;SDS011;7517;48.400;11.770;2022-07-10T00:28:42;2.13;;;1.93;;
14849;SDS011;7517;48.400;11.770;2022-07-10T00:31:10;1.70;;;1.60;;
14849;SDS011;7517;48.400;11.770;2022-07-10T00:33:38;2.17;;;1.70;;
14849;SDS011;7517;48.400;11.770;2022-07-10T00:36:06;1.60;;;1.50;;
14849;SDS011;7517;48.400;11.770;2022-07-10T00:38:34;1.70;;;1.60;;
14849;SDS011;7517;48.400;11.770;2022-07-10T00:41:01;1.60;;;1.50;;
14849;SDS011;7517;48.400;11.770;2022-07-10T00:43:28;1.70;;;1.60;;
14849;SDS011;7517;48.400;11.770;2022-07-10T00:45:55;2.10;;;1.80;;
14849;SDS011;7517;48.400;11.770;2022-07-10T00:48:23;2.07;;;1.97;;
14849;SDS011;7517;48.400;11.770;2022-07-10T00:50:51;2.10;;;2.00;;
14849;SDS011;7517;48.400;11.770;2022-07-10T00:53:18;2.47;;;2.30;;
14849;SDS011;7517;48.400;11.770;2022-07-10T00:55:46;2.40;;;2.30;;
14849;SDS011;7517;48.400;11.770;2022-07-10T00:58:13;1.90;;;1.80;;
14849;SDS011;7517;48.400;11.770;2022-07-10T01:00:41;2.30;;;2.10;;
14849;SDS011;7517;48.400;11.770;2022-07-10T01:03:09;1.90;;;1.80;;
14849;SDS011;7517;48.400;11.770;2022-07-10T01:05:37;2.03;;;1.93;;
14849;SDS011;7517;48.400;11.770;2022-07-10T01:08:05;2.00;;;1.90;;
14849;SDS011;7517;48.400;11.770;2022-07-10T01:10:33;1.83;;;1.73;;
14849;SDS011;7517;48.400;11.770;2022-07-10T01:13:00;2.20;;;2.00;;
14849;SDS011;7517;48.400;11.770;2022-07-10T01:15:28;2.27;;;2.07;;
14849;SDS011;7517;48.400;11.770;2022-07-10T01:17:58;3.43;;;2.33;;
14849;SDS011;7517;48.400;11.770;2022-07-10T01:20:29;1.97;;;1.87;;
14849;SDS011;7517;48.400;11.770;2022-07-10T01:22:59;1.90;;;1.80;;
14849;SDS011;7517;48.400;11.770;2022-07-10T01:25:27;1.87;;;1.77;;
14849;SDS011;7517;48.400;11.770;2022-07-10T01:27:54;2.17;;;2.07;;
14849;SDS011;7517;48.400;11.770;2022-07-10T01:30:21;2.10;;;1.90;;
14849;SDS011;7517;48.400;11.770;2022-07-10T01:32:49;2.13;;;1.93;;
14849;SDS011;7517;48.400;11.770;2022-07-10T01:35:17;2.10;;;2.00;;
14849;SDS011;7517;48.400;11.770;2022-07-10T01:37:44;1.83;;;1.73;;
14849;SDS011;7517;48.400;11.770;2022-07-10T01:40:13;2.23;;;2.03;;
14849;SDS011;7517;48.400;11.770;2022-07-10T01:42:40;2.70;;;1.90;;
14849;SDS011;7517;48.400;11.770;2022-07-10T01:45:08;1.93;;;1.83;;
14849;SDS011;7517;48.400;11.770;2022-07-10T01:47:36;1.87;;;1.77;;
14849;SDS011;7517;48.400;11.770;2022-07-10T01:50:04;1.80;;;1.70;;
14849;SDS011;7517;48.400;11.770;2022-07-10T01:52:33;1.73;;;1.63;;
14849;SDS011;7517;48.400;11.770;2022-07-10T01:55:00;1.97;;;1.87;;
14849;SDS011;7517;48.400;11.770;2022-07-10T01:57:34;2.33;;;2.13;;
14849;SDS011;7517;48.400;11.770;2022-07-10T02:00:02;2.00;;;1.90;;
14849;SDS011;7517;48.400;11.770;2022-07-10T02:02:31;2.27;;;2.17;;
14849;SDS011;7517;48.400;11.770;2022-07-10T02:04:58;2.20;;;2.10;;
14849;SDS011;7517;48.400;11.770;2022-07-10T02:07:25;2.17;;;2.07;;
14849;SDS011;7517;48.400;11.770;2022-07-10T02:09:52;2.83;;;2.07;;
14849;SDS011;7517;48.400;11.770;2022-07-10T02:12:22;2.23;;;2.10;;
14849;SDS011;7517;48.400;11.770;2022-07-10T02:14:51;2.83;;;2.30;;
14849;SDS011;7517;48.400;11.770;2022-07-10T02:17:18;2.10;;;2.00;;
14849;SDS011;7517;48.400;11.770;2022-07-10T02:19:45;2.80;;;2.60;;
14849;SDS011;7517;48.400;11.770;2022-07-10T02:22:12;2.20;;;2.10;;
14849;SDS011;7517;48.400;11.770;2022-07-10T02:24:40;1.97;;;1.87;;
14849;SDS011;7517;48.400;11.770;2022-07-10T02:27:07;2.27;;;2.07;;
14849;SDS011;7517;48.400;11.770;2022-07-10T02:29:34;2.20;;;2.10;;
14849;SDS011;7517;48.400;11.770;2022-07-10T02:32:04;3.37;;;2.10;;
14849;SDS011;7517;48.400;11.770;2022-07-10T02:34:32;2.47;;;2.27;;
14849;SDS011;7517;48.400;11.770;2022-07-10T02:36:59;2.27;;;2.17;;
14849;SDS011;7517;48.400;11.770;2022-07-10T02:39:27;2.17;;;2.00;;
14849;SDS011;7517;48.400;11.770;2022-07-10T02:41:54;3.40;;;2.20;;
14849;SDS011;7517;48.400;11.770;2022-07-10T02:44:21;2.27;;;2.17;;
14849;SDS011;7517;48.400;11.770;2022-07-10T02:46:48;2.80;;;2.40;;
14849;SDS011;7517;48.400;11.770;2022-07-10T02:49:17;2.20;;;2.10;;
14849;SDS011;7517;48.400;11.770;2022-07-10T02:51:44;2.10;;;2.00;;
14849;SDS011;7517;48.400;11.770;2022-07-10T02:54:11;2.60;;;2.40;;
14849;SDS011;7517;48.400;11.770;2022-07-10T02:56:38;2.47;;;2.00;;
14849;SDS011;7517;48.400;11.770;2022-07-10T02:59:06;1.97;;;1.87;;
14849;SDS011;7517;48.400;11.770;2022-07-10T03:01:33;1.97;;;1.87;;
14849;SDS011;7517;48.400;11.770;2022-07-10T03:04:00;2.00;;;1.90;;
14849;SDS011;7517;48.400;11.770;2022-07-10T03:06:29;2.00;;;1.90;;
14849;SDS011;7517;48.400;11.770;2022-07-10T03:08:57;2.23;;;1.90;;
14849;SDS011;7517;48.400;11.770;2022-07-10T03:11:25;2.00;;;1.90;;
14849;SDS011;7517;48.400;11.770;2022-07-10T03:13:52;2.13;;;2.03;;
14849;SDS011;7517;48.400;11.770;2022-07-10T03:16:19;3.63;;;2.17;;
14849;SDS011;7517;48.400;11.770;2022-07-10T03:18:46;2.23;;;2.03;;
14849;SDS011;7517;48.400;11.770;2022-07-10T03:21:14;2.00;;;1.90;;
14849;SDS011;7517;48.400;11.770;2022-07-10T03:23:42;2.10;;;2.00;;
14849;SDS011;7517;48.400;11.770;2022-07-10T03:26:09;2.43;;;2.23;;
14849;SDS011;7517;48.400;11.770;2022-07-10T03:28:37;2.40;;;2.20;;
14849;SDS011;7517;48.400;11.770;2022-07-10T03:31:04;1.90;;;1.80;;
14849;SDS011;7517;48.400;11.770;2022-07-10T03:33:31;2.43;;;2.23;;
14849;SDS011;7517;48.400;11.770;2022-07-10T03:35:59;2.40;;;2.20;;
14849;SDS011;7517;48.400;11.770;2022-07-10T03:38:28;4.50;;;2.27;;
14849;SDS011;7517;48.400;11.770;2022-07-10T03:40:56;2.07;;;1.97;;
14849;SDS011;7517;48.400;11.770;2022-07-10T03:43:24;2.20;;;2.10;;
14849;SDS011;7517;48.400;11.770;2022-07-10T03:45:51;2.30;;;2.13;;
14849;SDS011;7517;48.400;11.770;2022-07-10T03:48:18;2.20;;;2.10;;
14849;SDS011;7517;48.400;11.770;2022-07-10T03:50:48;2.00;;;1.90;;
14849;SDS011;7517;48.400;11.770;2022-07-10T03:53:17;2.00;;;1.90;;
14849;SDS011;7517;48.400;11.770;2022-07-10T03:55:44;2.13;;;2.03;;
14849;SDS011;7517;48.400;11.770;2022-07-10T03:58:13;2.20;;;2.10;;
14849;SDS011;7517;48.400;11.770;2022-07-10T04:00:39;1.97;;;1.87;;
14849;SDS011;7517;48.400;11.770;2022-07-10T04:03:07;2.00;;;1.90;;
14849;SDS011;7517;48.400;11.770;2022-07-10T04:05:35;2.20;;;2.10;;
14849;SDS011;7517;48.400;11.770;2022-07-10T04:08:02;2.20;;;2.10;;
14849;SDS011;7517;48.400;11.770;2022-07-10T04:10:31;2.47;;;2.27;;
14849;SDS011;7517;48.400;11.770;2022-07-10T04:12:58;2.20;;;2.10;;
14849;SDS011;7517;48.400;11.770;2022-07-10T04:15:27;2.50;;;2.40;;
14849;SDS011;7517;48.400;11.770;2022-07-10T04:17:55;2.87;;;2.30;;
14849;SDS011;7517;48.400;11.770;2022-07-10T04:20:22;2.47;;;2.37;;
14849;SDS011;7517;48.400;11.770;2022-07-10T04:22:49;2.30;;;2.20;;
14849;SDS011;7517;48.400;11.770;2022-07-10T04:25:17;2.33;;;2.13;;
14849;SDS011;7517;48.400;11.770;2022-07-10T04:27:44;2.40;;;2.30;;
14849;SDS011;7517;48.400;11.770;2022-07-10T04:30:11;2.33;;;2.20;;
14849;SDS011;7517;48.400;11.770;2022-07-10T04:32:40;2.47;;;2.37;;
14849;SDS011;7517;48.400;11.770;2022-07-10T04:35:08;2.57;;;2.37;;
14849;SDS011;7517;48.400;11.770;2022-07-10T04:37:35;2.63;;;2.43;;
14849;SDS011;7517;48.400;11.770;2022-07-10T04:40:03;2.73;;;2.53;;
14849;SDS011;7517;48.400;11.770;2022-07-10T04:42:31;2.50;;;2.40;;
14849;SDS011;7517;48.400;11.770;2022-07-10T04:44:58;3.20;;;2.37;;
14849;SDS011;7517;48.400;11.770;2022-07-10T04:47:25;2.73;;;2.53;;
14849;SDS011;7517;48.400;11.770;2022-07-10T04:49:54;2.93;;;2.73;;
14849;SDS011;7517;48.400;11.770;2022-07-10T04:52:21;2.97;;;2.77;;
14849;SDS011;7517;48.400;11.770;2022-07-10T04:54:49;3.03;;;2.80;;
14849;SDS011;7517;48.400;11.770;2022-07-10T04:57:16;2.73;;;2.53;;
14849;SDS011;7517;48.400;11.770;2022-07-10T04:59:43;2.60;;;2.47;;
14849;SDS011;7517;48.400;11.770;2022-07-10T05:02:10;2.83;;;2.40;;
14849;SDS011;7517;48.400;11.770;2022-07-10T05:04:38;3.17;;;2.97;;
14849;SDS011;7517;48.400;11.770;2022-07-10T05:07:06;2.80;;;2.70;;
14849;SDS011;7517;48.400;11.770;2022-07-10T05:09:33;3.00;;;2.80;;
14849;SDS011;7517;48.400;11.770;2022-07-10T05:12:01;3.20;;;2.90;;
14849;SDS011;7517;48.400;11.770;2022-07-10T05:14:28;3.13;;;2.93;;
14849;SDS011;7517;48.400;11.770;2022-07-10T05:16:56;3.10;;;2.90;;
14849;SDS011;7517;48.400;11.770;2022-07-10T05:19:23;2.90;;;2.70;;
14849;SDS011;7517;48.400;11.770;2022-07-10T05:21:50;2.80;;;2.60;;
14849;SDS011;7517;48.400;11.770;2022-07-10T05:24:19;3.00;;;2.80;;
14849;SDS011;7517;48.400;11.770;2022-07-10T05:26:46;2.87;;;2.67;;
14849;SDS011;7517;48.400;11.770;2022-07-10T05:29:13;3.47;;;3.07;;
14849;SDS011;7517;48.400;11.770;2022-07-10T05:31:41;3.43;;;3.13;;
14849;SDS011;7517;48.400;11.770;2022-07-10T05:34:08;3.07;;;2.80;;
14849;SDS011;7517;48.400;11.770;2022-07-10T05:36:35;3.10;;;2.90;;
14849;SDS011;7517;48.400;11.770;2022-07-10T05:39:02;3.27;;;3.07;;
14849;SDS011;7517;48.400;11.770;2022-07-10T05:41:31;3.70;;;3.40;;
14849;SDS011;7517;48.400;11.770;2022-07-10T05:43:58;3.47;;;3.27;;
14849;SDS011;7517;48.400;11.770;2022-07-10T05:46:26;3.70;;;3.50;;
14849;SDS011;7517;48.400;11.770;2022-07-10T05:48:53;4.10;;;3.80;;
14849;SDS011;7517;48.400;11.770;2022-07-10T05:51:20;4.03;;;3.77;;
14849;SDS011;7517;48.400;11.770;2022-07-10T05:53:48;3.80;;;3.60;;
14849;SDS011;7517;48.400;11.770;2022-07-10T05:56:15;3.80;;;3.60;;
14849;SDS011;7517;48.400;11.770;2022-07-10T05:58:44;4.00;;;3.70;;
14849;SDS011;7517;48.400;11.770;2022-07-10T06:01:11;3.73;;;3.53;;
14849;SDS011;7517;48.400;11.770;2022-07-10T06:03:38;3.93;;;3.73;;
14849;SDS011;7517;48.400;11.770;2022-07-10T06:06:05;4.33;;;3.93;;
14849;SDS011;7517;48.400;11.770;2022-07-10T06:08:33;3.70;;;3.50;;
14849;SDS011;7517;48.400;11.770;2022-07-10T06:11:00;4.23;;;3.80;;
14849;SDS011;7517;48.400;11.770;2022-07-10T06:13:27;4.13;;;3.83;;
14849;SDS011;7517;48.400;11.770;2022-07-10T06:15:56;3.80;;;3.60;;
14849;SDS011;7517;48.400;11.770;2022-07-10T06:18:23;3.90;;;3.70;;
14849;SDS011;7517;48.400;11.770;2022-07-10T06:20:51;4.43;;;4.03;;
14849;SDS011;7517;48.400;11.770;2022-07-10T06:23:18;4.40;;;4.10;;
14849;SDS011;7517;48.400;11.770;2022-07-10T06:25:45;5.00;;;3.80;;
14849;SDS011;7517;48.400;11.770;2022-07-10T06:28:13;4.30;;;4.00;;
14849;SDS011;7517;48.400;11.770;2022-07-10T06:30:43;4.13;;;3.87;;
14849;SDS011;7517;48.400;11.770;2022-07-10T06:33:12;4.20;;;3.90;;
14849;SDS011;7517;48.400;11.770;2022-07-10T06:35:40;4.10;;;3.90;;
14849;SDS011;7517;48.400;11.770;2022-07-10T06:38:08;4.50;;;4.20;;
14849;SDS011;7517;48.400;11.770;2022-07-10T06:40:36;4.00;;;3.70;;
14849;SDS011;7517;48.400;11.770;2022-07-10T06:43:04;4.20;;;3.90;;
14849;SDS011;7517;48.400;11.770;2022-07-10T06:45:31;4.03;;;3.77;;
14849;SDS011;7517;48.400;11.770;2022-07-10T06:47:58;4.47;;;4.20;;
14849;SDS011;7517;48.400;11.770;2022-07-10T06:50:27;3.97;;;3.57;;
14849;SDS011;7517;48.400;11.770;2022-07-10T06:52:57;4.17;;;3.93;;
14849;SDS011;7517;48.400;11.770;2022-07-10T06:55:24;3.67;;;3.47;;
14849;SDS011;7517;48.400;11.770;2022-07-10T06:57:52;4.03;;;3.73;;
14849;SDS011;7517;48.400;11.770;2022-07-10T07:00:20;4.13;;;3.83;;
14849;SDS011;7517;48.400;11.770;2022-07-10T07:02:48;3.80;;;3.50;;
14849;SDS011;7517;48.400;11.770;2022-07-10T07:05:15;3.80;;;3.50;;
14849;SDS011;7517;48.400;11.770;2022-07-10T07:07:44;3.87;;;3.67;;
14849;SDS011;7517;48.400;11.770;2022-07-10T07:10:12;3.87;;;3.67;;
14849;SDS011;7517;48.400;11.770;2022-07-10T07:12:39;3.70;;;3.50;;
14849;SDS011;7517;48.400;11.770;2022-07-10T07:15:07;4.03;;;3.67;;
14849;SDS011;7517;48.400;11.770;2022-07-10T07:17:38;3.60;;;3.40;;
14849;SDS011;7517;48.400;11.770;2022-07-10T07:20:22;3.60;;;3.40;;
14849;SDS011;7517;48.400;11.770;2022-07-10T07:23:10;3.57;;;3.37;;
14849;SDS011;7517;48.400;11.770;2022-07-10T07:25:37;3.63;;;3.43;;
14849;SDS011;7517;48.400;11.770;2022-07-10T07:28:07;3.50;;;3.20;;
14849;SDS011;7517;48.400;11.770;2022-07-10T07:30:35;3.60;;;3.30;;
14849;SDS011;7517;48.400;11.770;2022-07-10T07:33:02;3.00;;;2.80;;
14849;SDS011;7517;48.400;11.770;2022-07-10T07:35:30;3.13;;;2.87;;
14849;SDS011;7517;48.400;11.770;2022-07-10T07:37:57;3.00;;;2.80;;
14849;SDS011;7517;48.400;11.770;2022-07-10T07:40:26;2.90;;;2.70;;
14849;SDS011;7517;48.400;11.770;2022-07-10T07:42:53;2.60;;;2.47;;
14849;SDS011;7517;48.400;11.770;2022-07-10T07:45:22;2.67;;;2.57;;
14849;SDS011;7517;48.400;11.770;2022-07-10T07:47:50;2.30;;;2.20;;
14849;SDS011;7517;48.400;11.770;2022-07-10T07:50:20;2.07;;;1.97;;
14849;SDS011;7517;48.400;11.770;2022-07-10T07:52:50;1.93;;;1.73;;
14849;SDS011;7517;48.400;11.770;2022-07-10T07:55:18;2.00;;;1.90;;
14849;SDS011;7517;48.400;11.770;2022-07-10T07:57:50;1.90;;;1.63;;
14849;SDS011;7517;48.400;11.770;2022-07-10T08:00:18;2.47;;;1.60;;
14849;SDS011;7517;48.400;11.770;2022-07-10T08:02:47;1.50;;;1.40;;
14849;SDS011;7517;48.400;11.770;2022-07-10T08:05:15;2.07;;;1.87;;
14849;SDS011;7517;48.400;11.770;2022-07-10T08:07:44;2.27;;;1.20;;
14849;SDS011;7517;48.400;11.770;2022-07-10T08:10:14;1.30;;;1.20;;
14849;SDS011;7517;48.400;11.770;2022-07-10T08:12:44;0.80;;;0.80;;
14849;SDS011;7517;48.400;11.770;2022-07-10T08:15:28;1.00;;;0.90;;
14849;SDS011;7517;48.400;11.770;2022-07-10T08:18:00;1.13;;;1.03;;
14849;SDS011;7517;48.400;11.770;2022-07-10T08:20:32;1.40;;;0.90;;
14849;SDS011;7517;48.400;11.770;2022-07-10T08:23:03;0.83;;;0.77;;
14849;SDS011;7517;48.400;11.770;2022-07-10T08:25:36;1.33;;;0.80;;
14849;SDS011;7517;48.400;11.770;2022-07-10T08:28:09;0.80;;;0.80;;
14849;SDS011;7517;48.400;11.770;2022-07-10T08:30:37;0.83;;;0.83;;
14849;SDS011;7517;48.400;11.770;2022-07-10T08:33:08;0.93;;;0.83;;
14849;SDS011;7517;48.400;11.770;2022-07-10T08:35:43;2.07;;;0.87;;
14849;SDS011;7517;48.400;11.770;2022-07-10T08:38:14;2.27;;;0.67;;
14849;SDS011;7517;48.400;11.770;2022-07-10T08:40:44;1.77;;;0.90;;
14849;SDS011;7517;48.400;11.770;2022-07-10T08:43:20;0.80;;;0.67;;
14849;SDS011;7517;48.400;11.770;2022-07-10T08:45:50;0.60;;;0.60;;
14849;SDS011;7517;48.400;11.770;2022-07-10T08:48:23;0.70;;;0.67;;
14849;SDS011;7517;48.400;11.770;2022-07-10T08:50:57;1.60;;;0.93;;
14849;SDS011;7517;48.400;11.770;2022-07-10T08:53:35;1.27;;;0.80;;
14849;SDS011;7517;48.400;11.770;2022-07-10T08:56:08;0.97;;;0.87;;
14849;SDS011;7517;48.400;11.770;2022-07-10T08:58:39;1.10;;;0.70;;
14849;SDS011;7517;48.400;11.770;2022-07-10T09:01:09;1.73;;;0.70;;
14849;SDS011;7517;48.400;11.770;2022-07-10T09:03:40;0.60;;;0.60;;
14849;SDS011;7517;48.400;11.770;2022-07-10T09:06:16;0.80;;;0.60;;
14849;SDS011;7517;48.400;11.770;2022-07-10T09:09:00;0.80;;;0.60;;
14849;SDS011;7517;48.400;11.770;2022-07-10T09:11:30;0.90;;;0.70;;
14849;SDS011;7517;48.400;11.770;2022-07-10T09:14:01;1.13;;;0.50;;
14849;SDS011;7517;48.400;11.770;2022-07-10T09:16:33;1.20;;;0.77;;
14849;SDS011;7517;48.400;11.770;2022-07-10T09:19:17;1.57;;;0.70;;
14849;SDS011;7517;48.400;11.770;2022-07-10T09:21:51;1.33;;;0.70;;
14849;SDS011;7517;48.400;11.770;2022-07-10T09:24:21;1.17;;;0.57;;
14849;SDS011;7517;48.400;11.770;2022-07-10T09:27:08;1.40;;;0.70;;
14849;SDS011;7517;48.400;11.770;2022-07-10T09:29:52;2.10;;;0.73;;
14849;SDS011;7517;48.400;11.770;2022-07-10T09:32:31;1.10;;;1.00;;
14849;SDS011;7517;48.400;11.770;2022-07-10T09:35:07;0.70;;;0.67;;
14849;SDS011;7517;48.400;11.770;2022-07-10T09:38:02;0.80;;;0.80;;
14849;SDS011;7517;48.400;11.770;2022-07-10T09:40:38;1.00;;;0.60;;
14849;SDS011;7517;48.400;11.770;2022-07-10T09:43:11;0.97;;;0.60;;
14849;SDS011;7517;48.400;11.770;2022-07-10T09:46:13;1.07;;;0.60;;
14849;SDS011;7517;48.400;11.770;2022-07-10T09:48:42;1.53;;;0.57;;
14849;SDS011;7517;48.400;11.770;2022-07-10T09:51:14;0.57;;;0.50;;
14849;SDS011;7517;48.400;11.770;2022-07-10T09:53:45;1.23;;;0.60;;
14849;SDS011;7517;48.400;11.770;2022-07-10T09:56:13;1.47;;;0.60;;
14849;SDS011;7517;48.400;11.770;2022-07-10T09:58:40;0.87;;;0.60;;
14849;SDS011;7517;48.400;11.770;2022-07-10T10:01:14;1.20;;;0.57;;
14849;SDS011;7517;48.400;11.770;2022-07-10T10:03:43;1.07;;;1.07;;
14849;SDS011;7517;48.400;11.770;2022-07-10T10:06:14;0.93;;;0.60;;
14849;SDS011;7517;48.400;11.770;2022-07-10T10:08:48;1.63;;;0.50;;
14849;SDS011;7517;48.400;11.770;2022-07-10T10:11:23;0.77;;;0.50;;
14849;SDS011;7517;48.400;11.770;2022-07-10T10:13:54;0.50;;;0.50;;
14849;SDS011;7517;48.400;11.770;2022-07-10T10:16:24;0.70;;;0.40;;
14849;SDS011;7517;48.400;11.770;2022-07-10T10:18:54;0.93;;;0.65;;
14849;SDS011;7517;48.400;11.770;2022-07-10T10:21:40;2.35;;;0.60;;
14849;SDS011;7517;48.400;11.770;2022-07-10T10:24:07;0.77;;;0.50;;
14849;SDS011;7517;48.400;11.770;2022-07-10T10:26:35;1.80;;;0.70;;
14849;SDS011;7517;48.400;11.770;2022-07-10T10:29:03;1.40;;;0.63;;
14849;SDS011;7517;48.400;11.770;2022-07-10T10:31:33;0.50;;;0.50;;
14849;SDS011;7517;48.400;11.770;2022-07-10T10:34:02;1.40;;;0.63;;
14849;SDS011;7517;48.400;11.770;2022-07-10T10:36:45;2.97;;;1.00;;
14849;SDS011;7517;48.400;11.770;2022-07-10T10:39:14;1.40;;;0.60;;
14849;SDS011;7517;48.400;11.770;2022-07-10T10:41:48;1.20;;;0.57;;
14849;SDS011;7517;48.400;11.770;2022-07-10T10:44:24;0.50;;;0.50;;
14849;SDS011;7517;48.400;11.770;2022-07-10T10:47:02;2.00;;;0.60;;
14849;SDS011;7517;48.400;11.770;2022-07-10T10:53:15;0.67;;;0.40;;
14849;SDS011;7517;48.400;11.770;2022-07-10T10:59:13;0.60;;;0.60;;
14849;SDS011;7517;48.400;11.770;2022-07-10T11:05:44;1.70;;;0.60;;
14849;SDS011;7517;48.400;11.770;2022-07-10T11:08:42;0.70;;;0.50;;
14849;SDS011;7517;48.400;11.770;2022-07-10T11:14:06;0.63;;;0.40;;
14849;SDS011;7517;48.400;11.770;2022-07-10T11:16:35;1.20;;;0.50;;
14849;SDS011;7517;48.400;11.770;2022-07-10T11:19:20;0.50;;;0.43;;
14849;SDS011;7517;48.400;11.770;2022-07-10T11:21:49;0.33;;;0.30;;
14849;SDS011;7517;48.400;11.770;2022-07-10T11:25:03;0.73;;;0.40;;
14849;SDS011;7517;48.400;11.770;2022-07-10T11:27:58;0.70;;;0.60;;
14849;SDS011;7517;48.400;11.770;2022-07-10T11:30:43;0.40;;;0.40;;
14849;SDS011;7517;48.400;11.770;2022-07-10T11:33:16;2.27;;;0.50;;
14849;SDS011;7517;48.400;11.770;2022-07-10T11:35:47;1.27;;;0.30;;
14849;SDS011;7517;48.400;11.770;2022-07-10T11:38:19;0.30;;;0.30;;
14849;SDS011;7517;48.400;11.770;2022-07-10T11:40:47;1.27;;;0.40;;
14849;SDS011;7517;48.400;11.770;2022-07-10T11:43:15;0.50;;;0.30;;
14849;SDS011;7517;48.400;11.770;2022-07-10T11:45:45;0.50;;;0.40;;
14849;SDS011;7517;48.400;11.770;2022-07-10T11:48:18;0.93;;;0.40;;
14849;SDS011;7517;48.400;11.770;2022-07-10T11:50:49;0.63;;;0.40;;
14849;SDS011;7517;48.400;11.770;2022-07-10T11:53:21;0.60;;;0.50;;
14849;SDS011;7517;48.400;11.770;2022-07-10T11:55:49;0.30;;;0.30;;
14849;SDS011;7517;48.400;11.770;2022-07-10T11:58:17;0.20;;;0.20;;
14849;SDS011;7517;48.400;11.770;2022-07-10T12:00:56;0.60;;;0.40;;
14849;SDS011;7517;48.400;11.770;2022-07-10T12:03:26;1.70;;;0.50;;
14849;SDS011;7517;48.400;11.770;2022-07-10T12:05:55;0.73;;;0.73;;
14849;SDS011;7517;48.400;11.770;2022-07-10T12:08:28;0.60;;;0.40;;
14849;SDS011;7517;48.400;11.770;2022-07-10T12:11:10;0.50;;;0.50;;
14849;SDS011;7517;48.400;11.770;2022-07-10T12:13:39;0.50;;;0.50;;
14849;SDS011;7517;48.400;11.770;2022-07-10T12:16:06;0.23;;;0.23;;
14849;SDS011;7517;48.400;11.770;2022-07-10T12:18:33;0.40;;;0.40;;
14849;SDS011;7517;48.400;11.770;2022-07-10T12:21:02;0.30;;;0.30;;
14849;SDS011;7517;48.400;11.770;2022-07-10T12:23:31;0.80;;;0.37;;
14849;SDS011;7517;48.400;11.770;2022-07-10T12:26:00;0.73;;;0.50;;
14849;SDS011;7517;48.400;11.770;2022-07-10T12:28:28;0.83;;;0.40;;
14849;SDS011;7517;48.400;11.770;2022-07-10T12:30:57;0.80;;;0.30;;
14849;SDS011;7517;48.400;11.770;2022-07-10T12:33:24;0.70;;;0.30;;
14849;SDS011;7517;48.400;11.770;2022-07-10T12:35:53;0.20;;;0.20;;
14849;SDS011;7517;48.400;11.770;2022-07-10T12:38:23;1.03;;;0.50;;
14849;SDS011;7517;48.400;11.770;2022-07-10T12:41:05;1.10;;;0.30;;
14849;SDS011;7517;48.400;11.770;2022-07-10T12:43:34;1.03;;;0.20;;
14849;SDS011;7517;48.400;11.770;2022-07-10T12:46:08;0.40;;;0.30;;
14849;SDS011;7517;48.400;11.770;2022-07-10T12:48:39;0.73;;;0.30;;
14849;SDS011;7517;48.400;11.770;2022-07-10T12:51:19;0.60;;;0.17;;
14849;SDS011;7517;48.400;11.770;2022-07-10T12:53:50;1.70;;;0.40;;
14849;SDS011;7517;48.400;11.770;2022-07-10T12:56:31;1.33;;;0.30;;
14849;SDS011;7517;48.400;11.770;2022-07-10T12:59:01;0.73;;;0.30;;
14849;SDS011;7517;48.400;11.770;2022-07-10T13:01:39;0.93;;;0.30;;
14849;SDS011;7517;48.400;11.770;2022-07-10T13:04:07;1.83;;;0.57;;
14849;SDS011;7517;48.400;11.770;2022-07-10T13:06:35;0.43;;;0.40;;
14849;SDS011;7517;48.400;11.770;2022-07-10T13:09:18;1.43;;;0.30;;
14849;SDS011;7517;48.400;11.770;2022-07-10T13:11:48;1.17;;;0.20;;
14849;SDS011;7517;48.400;11.770;2022-07-10T13:14:16;0.77;;;0.40;;
14849;SDS011;7517;48.400;11.770;2022-07-10T13:16:43;0.83;;;0.20;;
14849;SDS011;7517;48.400;11.770;2022-07-10T13:19:10;0.83;;;0.30;;
14849;SDS011;7517;48.400;11.770;2022-07-10T13:21:37;0.40;;;0.30;;
14849;SDS011;7517;48.400;11.770;2022-07-10T13:24:05;0.70;;;0.30;;
14849;SDS011;7517;48.400;11.770;2022-07-10T13:26:34;0.30;;;0.20;;
14849;SDS011;7517;48.400;11.770;2022-07-10T13:29:01;0.53;;;0.20;;
14849;SDS011;7517;48.400;11.770;2022-07-10T13:31:28;0.60;;;0.40;;
14849;SDS011;7517;48.400;11.770;2022-07-10T13:33:56;0.43;;;0.27;;
14849;SDS011;7517;48.400;11.770;2022-07-10T13:36:23;0.30;;;0.30;;
14849;SDS011;7517;48.400;11.770;2022-07-10T13:38:50;0.60;;;0.50;;
14849;SDS011;7517;48.400;11.770;2022-07-10T13:41:20;0.80;;;0.50;;
14849;SDS011;7517;48.400;11.770;2022-07-10T13:43:48;0.80;;;0.40;;
14849;SDS011;7517;48.400;11.770;2022-07-10T13:46:15;0.67;;;0.43;;
14849;SDS011;7517;48.400;11.770;2022-07-10T13:48:43;0.63;;;0.20;;
14849;SDS011;7517;48.400;11.770;2022-07-10T13:51:10;0.33;;;0.30;;
14849;SDS011;7517;48.400;11.770;2022-07-10T13:53:37;0.30;;;0.30;;
14849;SDS011;7517;48.400;11.770;2022-07-10T13:56:05;1.27;;;0.20;;
14849;SDS011;7517;48.400;11.770;2022-07-10T13:58:34;0.70;;;0.20;;
14849;SDS011;7517;48.400;11.770;2022-07-10T14:01:03;0.27;;;0.20;;
14849;SDS011;7517;48.400;11.770;2022-07-10T14:03:31;0.90;;;0.43;;
14849;SDS011;7517;48.400;11.770;2022-07-10T14:05:58;0.83;;;0.30;;
14849;SDS011;7517;48.400;11.770;2022-07-10T14:08:25;1.23;;;0.40;;
14849;SDS011;7517;48.400;11.770;2022-07-10T14:10:53;0.30;;;0.30;;
14849;SDS011;7517;48.400;11.770;2022-07-10T14:13:20;0.30;;;0.30;;
14849;SDS011;7517;48.400;11.770;2022-07-10T14:15:47;2.30;;;0.10;;
14849;SDS011;7517;48.400;11.770;2022-07-10T14:18:15;0.73;;;0.30;;
14849;SDS011;7517;48.400;11.770;2022-07-10T14:20:59;1.03;;;0.50;;
14849;SDS011;7517;48.400;11.770;2022-07-10T14:23:29;0.30;;;0.30;;
14849;SDS011;7517;48.400;11.770;2022-07-10T14:25:57;0.70;;;0.40;;
14849;SDS011;7517;48.400;11.770;2022-07-10T14:28:25;0.87;;;0.33;;
14849;SDS011;7517;48.400;11.770;2022-07-10T14:30:52;1.63;;;0.40;;
14849;SDS011;7517;48.400;11.770;2022-07-10T14:33:21;0.60;;;0.40;;
14849;SDS011;7517;48.400;11.770;2022-07-10T14:35:48;1.10;;;0.30;;
14849;SDS011;7517;48.400;11.770;2022-07-10T14:38:15;0.47;;;0.30;;
14849;SDS011;7517;48.400;11.770;2022-07-10T14:40:42;1.50;;;0.40;;
14849;SDS011;7517;48.400;11.770;2022-07-10T14:43:10;0.87;;;0.40;;
14849;SDS011;7517;48.400;11.770;2022-07-10T14:45:37;0.37;;;0.23;;
14849;SDS011;7517;48.400;11.770;2022-07-10T14:48:04;1.77;;;0.37;;
14849;SDS011;7517;48.400;11.770;2022-07-10T14:50:34;0.30;;;0.23;;
14849;SDS011;7517;48.400;11.770;2022-07-10T14:53:01;0.20;;;0.10;;
14849;SDS011;7517;48.400;11.770;2022-07-10T14:55:30;0.80;;;0.20;;
14849;SDS011;7517;48.400;11.770;2022-07-10T14:57:57;0.50;;;0.40;;
14849;SDS011;7517;48.400;11.770;2022-07-10T15:00:24;0.40;;;0.20;;
14849;SDS011;7517;48.400;11.770;2022-07-10T15:02:51;0.30;;;0.30;;
14849;SDS011;7517;48.400;11.770;2022-07-10T15:05:18;1.20;;;0.30;;
14849;SDS011;7517;48.400;11.770;2022-07-10T15:07:47;0.50;;;0.30;;
14849;SDS011;7517;48.400;11.770;2022-07-10T15:10:14;0.23;;;0.20;;
14849;SDS011;7517;48.400;11.770;2022-07-10T15:12:43;0.50;;;0.40;;
14849;SDS011;7517;48.400;11.770;2022-07-10T15:15:11;1.03;;;0.30;;
14849;SDS011;7517;48.400;11.770;2022-07-10T15:17:38;0.30;;;0.20;;